sensor_id;sensor_type;location;lat;lon;timestamp;P1;durP1;ratioP1;P2;durP2;ratioP2
14247;SDS011;7208;49.826;6.004;2023-06-19T00:00:41;2.03;;;1.80;;
14247;SDS011;7208;49.826;6.004;2023-06-19T00:03:07;1.47;;;1.37;;
14247;SDS011;7208;49.826;6.004;2023-06-19T00:05:33;1.80;;;1.70;;
14247;SDS011;7208;49.826;6.004;2023-06-19T00:08:00;1.93;;;1.73;;
14247;SDS011;7208;49.826;6.004;2023-06-19T00:10:28;1.60;;;1.50;;
14247;SDS011;7208;49.826;6.004;2023-06-19T00:12:54;2.20;;;2.00;;
14247;SDS011;7208;49.826;6.004;2023-06-19T00:15:20;1.73;;;1.63;;
14247;SDS011;7208;49.826;6.004;2023-06-19T00:17:46;2.40;;;2.03;;
14247;SDS011;7208;49.826;6.004;2023-06-19T00:20:12;1.87;;;1.77;;
14247;SDS011;7208;49.826;6.004;2023-06-19T00:22:38;2.80;;;2.57;;
14247;SDS011;7208;49.826;6.004;2023-06-19T00:25:04;2.23;;;2.03;;
14247;SDS011;7208;49.826;6.004;2023-06-19T00:27:30;3.60;;;2.57;;
14247;SDS011;7208;49.826;6.004;2023-06-19T00:29:56;2.17;;;1.80;;
14247;SDS011;7208;49.826;6.004;2023-06-19T00:32:27;2.37;;;2.00;;
14247;SDS011;7208;49.826;6.004;2023-06-19T00:34:53;1.97;;;1.87;;
14247;SDS011;7208;49.826;6.004;2023-06-19T00:37:22;2.13;;;1.93;;
14247;SDS011;7208;49.826;6.004;2023-06-19T00:39:48;2.40;;;2.20;;
14247;SDS011;7208;49.826;6.004;2023-06-19T00:42:14;1.70;;;1.57;;
14247;SDS011;7208;49.826;6.004;2023-06-19T00:44:40;1.87;;;1.77;;
14247;SDS011;7208;49.826;6.004;2023-06-19T00:47:06;1.60;;;1.50;;
14247;SDS011;7208;49.826;6.004;2023-06-19T00:49:32;2.87;;;2.17;;
14247;SDS011;7208;49.826;6.004;2023-06-19T00:51:58;1.67;;;1.57;;
14247;SDS011;7208;49.826;6.004;2023-06-19T00:54:25;2.10;;;1.90;;
14247;SDS011;7208;49.826;6.004;2023-06-19T00:56:50;2.10;;;1.83;;
14247;SDS011;7208;49.826;6.004;2023-06-19T00:59:18;1.93;;;1.70;;
14247;SDS011;7208;49.826;6.004;2023-06-19T01:01:44;2.07;;;1.97;;
14247;SDS011;7208;49.826;6.004;2023-06-19T01:04:11;2.80;;;1.80;;
14247;SDS011;7208;49.826;6.004;2023-06-19T01:06:41;1.83;;;1.73;;
14247;SDS011;7208;49.826;6.004;2023-06-19T01:09:10;2.50;;;2.17;;
14247;SDS011;7208;49.826;6.004;2023-06-19T01:11:39;2.50;;;2.30;;
14247;SDS011;7208;49.826;6.004;2023-06-19T01:14:09;2.30;;;2.10;;
14247;SDS011;7208;49.826;6.004;2023-06-19T01:16:38;2.50;;;2.30;;
14247;SDS011;7208;49.826;6.004;2023-06-19T01:19:05;3.00;;;2.80;;
14247;SDS011;7208;49.826;6.004;2023-06-19T01:21:31;2.57;;;2.37;;
14247;SDS011;7208;49.826;6.004;2023-06-19T01:23:57;2.90;;;2.37;;
14247;SDS011;7208;49.826;6.004;2023-06-19T01:26:23;2.67;;;2.17;;
14247;SDS011;7208;49.826;6.004;2023-06-19T01:28:52;2.17;;;1.97;;
14247;SDS011;7208;49.826;6.004;2023-06-19T01:31:36;2.60;;;2.40;;
14247;SDS011;7208;49.826;6.004;2023-06-19T01:34:04;2.40;;;2.20;;
14247;SDS011;7208;49.826;6.004;2023-06-19T01:36:32;3.40;;;2.67;;
14247;SDS011;7208;49.826;6.004;2023-06-19T01:38:58;3.40;;;2.67;;
14247;SDS011;7208;49.826;6.004;2023-06-19T01:41:25;2.20;;;2.07;;
14247;SDS011;7208;49.826;6.004;2023-06-19T01:43:52;2.77;;;2.30;;
14247;SDS011;7208;49.826;6.004;2023-06-19T01:46:18;2.50;;;2.20;;
14247;SDS011;7208;49.826;6.004;2023-06-19T01:48:44;2.73;;;2.53;;
14247;SDS011;7208;49.826;6.004;2023-06-19T01:51:10;3.27;;;2.97;;
14247;SDS011;7208;49.826;6.004;2023-06-19T01:53:36;2.63;;;2.43;;
14247;SDS011;7208;49.826;6.004;2023-06-19T01:56:02;3.97;;;2.80;;
14247;SDS011;7208;49.826;6.004;2023-06-19T01:58:28;3.50;;;2.60;;
14247;SDS011;7208;49.826;6.004;2023-06-19T02:00:54;2.90;;;2.63;;
14247;SDS011;7208;49.826;6.004;2023-06-19T02:03:20;3.07;;;2.77;;
14247;SDS011;7208;49.826;6.004;2023-06-19T02:05:46;2.57;;;2.30;;
14247;SDS011;7208;49.826;6.004;2023-06-19T02:08:12;2.90;;;2.67;;
14247;SDS011;7208;49.826;6.004;2023-06-19T02:10:38;2.60;;;2.40;;
14247;SDS011;7208;49.826;6.004;2023-06-19T02:13:04;3.17;;;2.70;;
14247;SDS011;7208;49.826;6.004;2023-06-19T02:15:31;3.00;;;2.80;;
14247;SDS011;7208;49.826;6.004;2023-06-19T02:17:56;3.37;;;3.07;;
14247;SDS011;7208;49.826;6.004;2023-06-19T02:20:23;3.07;;;2.87;;
14247;SDS011;7208;49.826;6.004;2023-06-19T02:22:52;3.90;;;3.50;;
14247;SDS011;7208;49.826;6.004;2023-06-19T02:25:18;3.30;;;3.00;;
14247;SDS011;7208;49.826;6.004;2023-06-19T02:27:44;3.93;;;3.53;;
14247;SDS011;7208;49.826;6.004;2023-06-19T02:30:10;4.63;;;4.23;;
14247;SDS011;7208;49.826;6.004;2023-06-19T02:32:36;3.60;;;3.30;;
14247;SDS011;7208;49.826;6.004;2023-06-19T02:35:04;3.43;;;3.20;;
14247;SDS011;7208;49.826;6.004;2023-06-19T02:37:30;3.60;;;3.30;;
14247;SDS011;7208;49.826;6.004;2023-06-19T02:39:56;4.07;;;3.67;;
14247;SDS011;7208;49.826;6.004;2023-06-19T02:42:23;3.97;;;3.67;;
14247;SDS011;7208;49.826;6.004;2023-06-19T02:44:50;3.50;;;3.20;;
14247;SDS011;7208;49.826;6.004;2023-06-19T02:47:16;3.60;;;3.30;;
14247;SDS011;7208;49.826;6.004;2023-06-19T02:49:42;3.63;;;3.27;;
14247;SDS011;7208;49.826;6.004;2023-06-19T02:52:08;3.27;;;2.97;;
14247;SDS011;7208;49.826;6.004;2023-06-19T02:54:34;4.10;;;3.70;;
14247;SDS011;7208;49.826;6.004;2023-06-19T02:57:00;4.40;;;4.00;;
14247;SDS011;7208;49.826;6.004;2023-06-19T02:59:26;4.10;;;3.80;;
14247;SDS011;7208;49.826;6.004;2023-06-19T03:01:52;4.67;;;4.27;;
14247;SDS011;7208;49.826;6.004;2023-06-19T03:04:18;4.73;;;4.23;;
14247;SDS011;7208;49.826;6.004;2023-06-19T03:06:44;3.70;;;3.40;;
14247;SDS011;7208;49.826;6.004;2023-06-19T03:09:10;4.93;;;3.80;;
14247;SDS011;7208;49.826;6.004;2023-06-19T03:11:40;4.30;;;3.90;;
14247;SDS011;7208;49.826;6.004;2023-06-19T03:14:06;3.90;;;3.60;;
14247;SDS011;7208;49.826;6.004;2023-06-19T03:16:34;4.07;;;3.67;;
14247;SDS011;7208;49.826;6.004;2023-06-19T03:19:00;4.23;;;3.83;;
14247;SDS011;7208;49.826;6.004;2023-06-19T03:21:26;4.60;;;3.77;;
14247;SDS011;7208;49.826;6.004;2023-06-19T03:23:52;4.13;;;3.73;;
14247;SDS011;7208;49.826;6.004;2023-06-19T03:26:19;3.53;;;3.23;;
14247;SDS011;7208;49.826;6.004;2023-06-19T03:28:45;3.63;;;3.30;;
14247;SDS011;7208;49.826;6.004;2023-06-19T03:31:12;3.80;;;3.50;;
14247;SDS011;7208;49.826;6.004;2023-06-19T03:33:38;3.93;;;3.57;;
14247;SDS011;7208;49.826;6.004;2023-06-19T03:36:04;4.13;;;3.80;;
14247;SDS011;7208;49.826;6.004;2023-06-19T03:38:31;4.77;;;4.37;;
14247;SDS011;7208;49.826;6.004;2023-06-19T03:40:58;4.03;;;3.63;;
14247;SDS011;7208;49.826;6.004;2023-06-19T03:43:24;4.70;;;4.30;;
14247;SDS011;7208;49.826;6.004;2023-06-19T03:45:50;4.23;;;3.70;;
14247;SDS011;7208;49.826;6.004;2023-06-19T03:48:16;4.50;;;4.10;;
14247;SDS011;7208;49.826;6.004;2023-06-19T03:50:43;4.23;;;3.90;;
14247;SDS011;7208;49.826;6.004;2023-06-19T03:53:09;4.40;;;4.00;;
14247;SDS011;7208;49.826;6.004;2023-06-19T03:55:35;4.67;;;3.93;;
14247;SDS011;7208;49.826;6.004;2023-06-19T03:58:01;5.97;;;4.60;;
14247;SDS011;7208;49.826;6.004;2023-06-19T04:00:27;4.87;;;4.47;;
14247;SDS011;7208;49.826;6.004;2023-06-19T04:02:53;5.20;;;4.70;;
14247;SDS011;7208;49.826;6.004;2023-06-19T04:05:19;4.47;;;4.17;;
14247;SDS011;7208;49.826;6.004;2023-06-19T04:07:45;4.47;;;4.07;;
14247;SDS011;7208;49.826;6.004;2023-06-19T04:10:11;6.37;;;4.90;;
14247;SDS011;7208;49.826;6.004;2023-06-19T04:12:37;5.57;;;4.93;;
14247;SDS011;7208;49.826;6.004;2023-06-19T04:15:05;7.33;;;5.43;;
14247;SDS011;7208;49.826;6.004;2023-06-19T04:17:31;5.87;;;5.27;;
14247;SDS011;7208;49.826;6.004;2023-06-19T04:20:00;7.73;;;5.67;;
14247;SDS011;7208;49.826;6.004;2023-06-19T04:22:28;6.50;;;5.23;;
14247;SDS011;7208;49.826;6.004;2023-06-19T04:24:54;5.03;;;4.63;;
14247;SDS011;7208;49.826;6.004;2023-06-19T04:27:23;5.23;;;4.73;;
14247;SDS011;7208;49.826;6.004;2023-06-19T04:29:49;5.83;;;5.07;;
14247;SDS011;7208;49.826;6.004;2023-06-19T04:32:18;4.73;;;4.33;;
14247;SDS011;7208;49.826;6.004;2023-06-19T04:34:44;6.73;;;4.83;;
14247;SDS011;7208;49.826;6.004;2023-06-19T04:37:11;4.83;;;4.43;;
14247;SDS011;7208;49.826;6.004;2023-06-19T04:39:37;4.87;;;4.47;;
14247;SDS011;7208;49.826;6.004;2023-06-19T04:42:03;4.87;;;4.47;;
14247;SDS011;7208;49.826;6.004;2023-06-19T04:44:29;4.17;;;3.87;;
14247;SDS011;7208;49.826;6.004;2023-06-19T04:46:59;4.67;;;4.27;;
14247;SDS011;7208;49.826;6.004;2023-06-19T04:49:28;3.87;;;3.53;;
14247;SDS011;7208;49.826;6.004;2023-06-19T04:51:57;3.90;;;3.60;;
14247;SDS011;7208;49.826;6.004;2023-06-19T04:54:24;4.17;;;3.77;;
14247;SDS011;7208;49.826;6.004;2023-06-19T04:56:51;3.60;;;3.30;;
14247;SDS011;7208;49.826;6.004;2023-06-19T04:59:18;3.63;;;3.27;;
14247;SDS011;7208;49.826;6.004;2023-06-19T05:01:50;3.43;;;3.13;;
14247;SDS011;7208;49.826;6.004;2023-06-19T05:04:19;3.23;;;2.93;;
14247;SDS011;7208;49.826;6.004;2023-06-19T05:06:45;3.00;;;2.70;;
14247;SDS011;7208;49.826;6.004;2023-06-19T05:09:11;3.43;;;3.13;;
14247;SDS011;7208;49.826;6.004;2023-06-19T05:11:37;3.33;;;2.70;;
14247;SDS011;7208;49.826;6.004;2023-06-19T05:14:03;3.17;;;2.90;;
14247;SDS011;7208;49.826;6.004;2023-06-19T05:16:29;3.37;;;2.47;;
14247;SDS011;7208;49.826;6.004;2023-06-19T05:18:55;2.97;;;2.70;;
14247;SDS011;7208;49.826;6.004;2023-06-19T05:21:21;3.67;;;3.20;;
14247;SDS011;7208;49.826;6.004;2023-06-19T05:23:47;2.27;;;2.07;;
14247;SDS011;7208;49.826;6.004;2023-06-19T05:26:19;2.23;;;2.03;;
14247;SDS011;7208;49.826;6.004;2023-06-19T05:28:45;2.40;;;2.23;;
14247;SDS011;7208;49.826;6.004;2023-06-19T05:31:11;3.30;;;3.00;;
14247;SDS011;7208;49.826;6.004;2023-06-19T05:33:37;2.83;;;2.50;;
14247;SDS011;7208;49.826;6.004;2023-06-19T05:36:03;4.03;;;2.47;;
14247;SDS011;7208;49.826;6.004;2023-06-19T05:38:29;3.73;;;3.30;;
14247;SDS011;7208;49.826;6.004;2023-06-19T05:40:56;3.83;;;2.83;;
14247;SDS011;7208;49.826;6.004;2023-06-19T05:43:22;2.80;;;2.00;;
14247;SDS011;7208;49.826;6.004;2023-06-19T05:45:49;5.10;;;2.20;;
14247;SDS011;7208;49.826;6.004;2023-06-19T05:48:15;3.20;;;2.13;;
14247;SDS011;7208;49.826;6.004;2023-06-19T05:50:42;5.33;;;2.63;;
14247;SDS011;7208;49.826;6.004;2023-06-19T05:53:08;3.00;;;2.40;;
14247;SDS011;7208;49.826;6.004;2023-06-19T05:55:34;2.97;;;2.10;;
14247;SDS011;7208;49.826;6.004;2023-06-19T05:58:00;2.90;;;2.47;;
14247;SDS011;7208;49.826;6.004;2023-06-19T06:00:27;2.57;;;2.37;;
14247;SDS011;7208;49.826;6.004;2023-06-19T06:02:56;2.00;;;1.90;;
14247;SDS011;7208;49.826;6.004;2023-06-19T06:05:26;2.03;;;1.87;;
14247;SDS011;7208;49.826;6.004;2023-06-19T06:07:53;2.00;;;1.90;;
14247;SDS011;7208;49.826;6.004;2023-06-19T06:10:22;1.80;;;1.70;;
14247;SDS011;7208;49.826;6.004;2023-06-19T06:12:49;2.37;;;1.83;;
14247;SDS011;7208;49.826;6.004;2023-06-19T06:15:15;2.13;;;2.03;;
14247;SDS011;7208;49.826;6.004;2023-06-19T06:17:41;2.10;;;2.00;;
14247;SDS011;7208;49.826;6.004;2023-06-19T06:20:07;2.03;;;1.93;;
14247;SDS011;7208;49.826;6.004;2023-06-19T06:22:38;2.00;;;1.90;;
14247;SDS011;7208;49.826;6.004;2023-06-19T06:25:04;3.30;;;1.83;;
14247;SDS011;7208;49.826;6.004;2023-06-19T06:27:30;1.80;;;1.70;;
14247;SDS011;7208;49.826;6.004;2023-06-19T06:29:59;1.60;;;1.50;;
14247;SDS011;7208;49.826;6.004;2023-06-19T06:32:25;1.77;;;1.67;;
14247;SDS011;7208;49.826;6.004;2023-06-19T06:34:53;1.73;;;1.63;;
14247;SDS011;7208;49.826;6.004;2023-06-19T06:37:20;1.73;;;1.63;;
14247;SDS011;7208;49.826;6.004;2023-06-19T06:39:49;1.70;;;1.60;;
14247;SDS011;7208;49.826;6.004;2023-06-19T06:42:15;1.73;;;1.63;;
14247;SDS011;7208;49.826;6.004;2023-06-19T06:44:41;1.83;;;1.73;;
14247;SDS011;7208;49.826;6.004;2023-06-19T06:47:07;1.77;;;1.67;;
14247;SDS011;7208;49.826;6.004;2023-06-19T06:49:36;1.80;;;1.70;;
14247;SDS011;7208;49.826;6.004;2023-06-19T06:52:03;1.70;;;1.60;;
14247;SDS011;7208;49.826;6.004;2023-06-19T06:54:30;1.70;;;1.60;;
14247;SDS011;7208;49.826;6.004;2023-06-19T06:56:56;1.60;;;1.50;;
14247;SDS011;7208;49.826;6.004;2023-06-19T06:59:26;1.70;;;1.60;;
14247;SDS011;7208;49.826;6.004;2023-06-19T07:01:55;1.88;;;1.77;;
14247;SDS011;7208;49.826;6.004;2023-06-19T07:04:22;1.50;;;1.40;;
14247;SDS011;7208;49.826;6.004;2023-06-19T07:06:48;1.70;;;1.60;;
14247;SDS011;7208;49.826;6.004;2023-06-19T07:09:14;1.77;;;1.67;;
14247;SDS011;7208;49.826;6.004;2023-06-19T07:11:40;2.23;;;2.10;;
14247;SDS011;7208;49.826;6.004;2023-06-19T07:14:06;2.20;;;1.60;;
14247;SDS011;7208;49.826;6.004;2023-06-19T07:16:32;1.80;;;1.70;;
14247;SDS011;7208;49.826;6.004;2023-06-19T07:18:58;2.10;;;1.60;;
14247;SDS011;7208;49.826;6.004;2023-06-19T07:21:24;1.43;;;1.33;;
14247;SDS011;7208;49.826;6.004;2023-06-19T07:23:53;1.63;;;1.53;;
14247;SDS011;7208;49.826;6.004;2023-06-19T07:26:19;1.60;;;1.50;;
14247;SDS011;7208;49.826;6.004;2023-06-19T07:28:45;1.77;;;1.67;;
14247;SDS011;7208;49.826;6.004;2023-06-19T07:31:12;1.60;;;1.50;;
14247;SDS011;7208;49.826;6.004;2023-06-19T07:33:38;1.50;;;1.40;;
14247;SDS011;7208;49.826;6.004;2023-06-19T07:36:04;1.40;;;1.30;;
14247;SDS011;7208;49.826;6.004;2023-06-19T07:38:30;1.40;;;1.30;;
14247;SDS011;7208;49.826;6.004;2023-06-19T07:40:56;1.37;;;1.27;;
14247;SDS011;7208;49.826;6.004;2023-06-19T07:43:22;1.57;;;1.47;;
14247;SDS011;7208;49.826;6.004;2023-06-19T07:45:49;1.20;;;1.20;;
14247;SDS011;7208;49.826;6.004;2023-06-19T07:48:16;1.57;;;1.47;;
14247;SDS011;7208;49.826;6.004;2023-06-19T07:50:42;1.37;;;1.27;;
14247;SDS011;7208;49.826;6.004;2023-06-19T07:53:08;1.17;;;1.17;;
14247;SDS011;7208;49.826;6.004;2023-06-19T07:55:34;1.53;;;1.43;;
14247;SDS011;7208;49.826;6.004;2023-06-19T07:58:00;1.40;;;1.30;;
14247;SDS011;7208;49.826;6.004;2023-06-19T08:00:26;1.33;;;1.23;;
14247;SDS011;7208;49.826;6.004;2023-06-19T08:02:52;1.40;;;1.30;;
14247;SDS011;7208;49.826;6.004;2023-06-19T08:05:18;1.90;;;1.00;;
14247;SDS011;7208;49.826;6.004;2023-06-19T08:07:44;1.43;;;1.33;;
14247;SDS011;7208;49.826;6.004;2023-06-19T08:10:10;1.90;;;1.70;;
14247;SDS011;7208;49.826;6.004;2023-06-19T08:12:36;1.37;;;1.33;;
14247;SDS011;7208;49.826;6.004;2023-06-19T08:15:03;1.47;;;1.37;;
14247;SDS011;7208;49.826;6.004;2023-06-19T08:17:32;1.53;;;1.30;;
14247;SDS011;7208;49.826;6.004;2023-06-19T08:19:59;1.43;;;1.33;;
14247;SDS011;7208;49.826;6.004;2023-06-19T08:22:25;1.20;;;1.13;;
14247;SDS011;7208;49.826;6.004;2023-06-19T08:24:51;0.97;;;0.97;;
14247;SDS011;7208;49.826;6.004;2023-06-19T08:27:17;1.20;;;1.20;;
14247;SDS011;7208;49.826;6.004;2023-06-19T08:29:43;1.07;;;0.97;;
14247;SDS011;7208;49.826;6.004;2023-06-19T08:32:09;3.43;;;1.13;;
14247;SDS011;7208;49.826;6.004;2023-06-19T08:34:35;0.97;;;0.97;;
14247;SDS011;7208;49.826;6.004;2023-06-19T08:37:03;1.80;;;1.37;;
14247;SDS011;7208;49.826;6.004;2023-06-19T08:39:29;1.30;;;1.20;;
14247;SDS011;7208;49.826;6.004;2023-06-19T08:41:55;1.77;;;1.67;;
14247;SDS011;7208;49.826;6.004;2023-06-19T08:44:23;1.00;;;0.93;;
14247;SDS011;7208;49.826;6.004;2023-06-19T08:46:55;1.30;;;1.20;;
14247;SDS011;7208;49.826;6.004;2023-06-19T08:49:23;1.03;;;1.03;;
14247;SDS011;7208;49.826;6.004;2023-06-19T08:51:55;1.30;;;1.20;;
14247;SDS011;7208;49.826;6.004;2023-06-19T08:54:21;1.43;;;1.13;;
14247;SDS011;7208;49.826;6.004;2023-06-19T08:56:47;1.40;;;1.20;;
14247;SDS011;7208;49.826;6.004;2023-06-19T08:59:15;1.10;;;1.10;;
14247;SDS011;7208;49.826;6.004;2023-06-19T09:01:46;0.90;;;0.90;;
14247;SDS011;7208;49.826;6.004;2023-06-19T09:04:23;1.00;;;1.00;;
14247;SDS011;7208;49.826;6.004;2023-06-19T09:06:56;1.00;;;0.90;;
14247;SDS011;7208;49.826;6.004;2023-06-19T09:09:23;0.90;;;0.90;;
14247;SDS011;7208;49.826;6.004;2023-06-19T09:12:00;0.93;;;0.93;;
14247;SDS011;7208;49.826;6.004;2023-06-19T09:14:36;2.47;;;1.90;;
14247;SDS011;7208;49.826;6.004;2023-06-19T09:17:07;1.23;;;1.00;;
14247;SDS011;7208;49.826;6.004;2023-06-19T09:19:33;1.10;;;1.10;;
14247;SDS011;7208;49.826;6.004;2023-06-19T09:22:02;1.07;;;1.00;;
14247;SDS011;7208;49.826;6.004;2023-06-19T09:24:36;1.10;;;1.00;;
14247;SDS011;7208;49.826;6.004;2023-06-19T09:27:20;1.37;;;1.10;;
14247;SDS011;7208;49.826;6.004;2023-06-19T09:29:47;0.90;;;0.90;;
14247;SDS011;7208;49.826;6.004;2023-06-19T09:32:32;0.80;;;0.80;;
14247;SDS011;7208;49.826;6.004;2023-06-19T09:34:58;0.70;;;0.70;;
14247;SDS011;7208;49.826;6.004;2023-06-19T09:39:57;1.13;;;1.03;;
14247;SDS011;7208;49.826;6.004;2023-06-19T09:42:33;1.00;;;0.90;;
14247;SDS011;7208;49.826;6.004;2023-06-19T09:45:06;1.33;;;1.23;;
14247;SDS011;7208;49.826;6.004;2023-06-19T09:50:02;1.43;;;1.00;;
14247;SDS011;7208;49.826;6.004;2023-06-19T09:52:29;1.03;;;1.00;;
14247;SDS011;7208;49.826;6.004;2023-06-19T09:54:56;0.87;;;0.87;;
14247;SDS011;7208;49.826;6.004;2023-06-19T09:57:24;0.70;;;0.70;;
14247;SDS011;7208;49.826;6.004;2023-06-19T09:59:52;1.23;;;1.13;;
14247;SDS011;7208;49.826;6.004;2023-06-19T10:02:19;1.08;;;1.08;;
14247;SDS011;7208;49.826;6.004;2023-06-19T10:04:49;1.60;;;1.50;;
14247;SDS011;7208;49.826;6.004;2023-06-19T10:07:25;0.82;;;0.82;;
14247;SDS011;7208;49.826;6.004;2023-06-19T10:10:00;1.00;;;1.00;;
14247;SDS011;7208;49.826;6.004;2023-06-19T10:12:36;1.20;;;1.10;;
14247;SDS011;7208;49.826;6.004;2023-06-19T10:15:09;1.05;;;1.02;;
14247;SDS011;7208;49.826;6.004;2023-06-19T10:17:35;0.80;;;0.80;;
14247;SDS011;7208;49.826;6.004;2023-06-19T10:20:01;1.20;;;0.93;;
14247;SDS011;7208;49.826;6.004;2023-06-19T10:22:31;0.80;;;0.80;;
14247;SDS011;7208;49.826;6.004;2023-06-19T10:24:57;0.90;;;0.90;;
14247;SDS011;7208;49.826;6.004;2023-06-19T10:27:24;1.15;;;1.08;;
14247;SDS011;7208;49.826;6.004;2023-06-19T10:29:53;0.93;;;0.93;;
14247;SDS011;7208;49.826;6.004;2023-06-19T10:32:20;0.90;;;0.90;;
14247;SDS011;7208;49.826;6.004;2023-06-19T10:34:47;1.10;;;1.00;;
14247;SDS011;7208;49.826;6.004;2023-06-19T10:37:16;0.80;;;0.80;;
14247;SDS011;7208;49.826;6.004;2023-06-19T10:39:43;1.27;;;1.17;;
14247;SDS011;7208;49.826;6.004;2023-06-19T10:42:12;3.65;;;1.00;;
14247;SDS011;7208;49.826;6.004;2023-06-19T10:44:38;1.48;;;1.02;;
14247;SDS011;7208;49.826;6.004;2023-06-19T10:47:10;1.10;;;1.00;;
14247;SDS011;7208;49.826;6.004;2023-06-19T10:49:36;0.82;;;0.82;;
14247;SDS011;7208;49.826;6.004;2023-06-19T10:52:02;1.30;;;1.20;;
14247;SDS011;7208;49.826;6.004;2023-06-19T10:54:28;1.30;;;1.20;;
14247;SDS011;7208;49.826;6.004;2023-06-19T10:56:54;0.77;;;0.77;;
14247;SDS011;7208;49.826;6.004;2023-06-19T10:59:22;1.30;;;1.20;;
14247;SDS011;7208;49.826;6.004;2023-06-19T11:01:49;1.52;;;1.20;;
14247;SDS011;7208;49.826;6.004;2023-06-19T11:04:16;1.23;;;1.10;;
14247;SDS011;7208;49.826;6.004;2023-06-19T11:06:42;1.30;;;1.20;;
14247;SDS011;7208;49.826;6.004;2023-06-19T11:09:12;1.02;;;1.02;;
14247;SDS011;7208;49.826;6.004;2023-06-19T11:11:39;1.23;;;1.00;;
14247;SDS011;7208;49.826;6.004;2023-06-19T11:14:06;1.05;;;0.95;;
14247;SDS011;7208;49.826;6.004;2023-06-19T11:16:37;1.13;;;1.02;;
14247;SDS011;7208;49.826;6.004;2023-06-19T11:19:05;1.02;;;1.00;;
14247;SDS011;7208;49.826;6.004;2023-06-19T11:21:32;1.50;;;1.38;;
14247;SDS011;7208;49.826;6.004;2023-06-19T11:24:01;1.02;;;1.02;;
14247;SDS011;7208;49.826;6.004;2023-06-19T11:26:28;1.45;;;1.35;;
14247;SDS011;7208;49.826;6.004;2023-06-19T11:28:58;1.13;;;1.02;;
14247;SDS011;7208;49.826;6.004;2023-06-19T11:31:28;1.13;;;1.13;;
14247;SDS011;7208;49.826;6.004;2023-06-19T11:34:00;2.67;;;1.00;;
14247;SDS011;7208;49.826;6.004;2023-06-19T11:36:27;0.98;;;0.90;;
14247;SDS011;7208;49.826;6.004;2023-06-19T11:38:57;0.90;;;0.90;;
14247;SDS011;7208;49.826;6.004;2023-06-19T11:41:27;1.13;;;1.13;;
14247;SDS011;7208;49.826;6.004;2023-06-19T11:44:00;1.30;;;1.20;;
14247;SDS011;7208;49.826;6.004;2023-06-19T11:46:28;1.20;;;1.05;;
14247;SDS011;7208;49.826;6.004;2023-06-19T11:48:55;1.13;;;1.08;;
14247;SDS011;7208;49.826;6.004;2023-06-19T11:51:21;1.30;;;1.20;;
14247;SDS011;7208;49.826;6.004;2023-06-19T11:53:48;1.40;;;1.30;;
14247;SDS011;7208;49.826;6.004;2023-06-19T11:56:14;1.02;;;1.02;;
14247;SDS011;7208;49.826;6.004;2023-06-19T11:58:40;1.20;;;1.13;;
14247;SDS011;7208;49.826;6.004;2023-06-19T12:01:06;0.88;;;0.88;;
14247;SDS011;7208;49.826;6.004;2023-06-19T12:03:32;1.30;;;1.20;;
14247;SDS011;7208;49.826;6.004;2023-06-19T12:05:58;1.58;;;1.48;;
14247;SDS011;7208;49.826;6.004;2023-06-19T12:08:24;1.30;;;1.20;;
14247;SDS011;7208;49.826;6.004;2023-06-19T12:10:50;1.15;;;1.05;;
14247;SDS011;7208;49.826;6.004;2023-06-19T12:13:17;1.67;;;1.20;;
14247;SDS011;7208;49.826;6.004;2023-06-19T12:15:43;2.47;;;1.33;;
14247;SDS011;7208;49.826;6.004;2023-06-19T12:18:09;0.90;;;0.90;;
14247;SDS011;7208;49.826;6.004;2023-06-19T12:20:39;1.40;;;1.30;;
14247;SDS011;7208;49.826;6.004;2023-06-19T12:23:05;1.38;;;1.27;;
14247;SDS011;7208;49.826;6.004;2023-06-19T12:28:20;1.30;;;1.20;;
14247;SDS011;7208;49.826;6.004;2023-06-19T12:30:47;1.30;;;1.20;;
14247;SDS011;7208;49.826;6.004;2023-06-19T12:33:20;1.15;;;1.05;;
14247;SDS011;7208;49.826;6.004;2023-06-19T12:35:46;1.23;;;1.13;;
14247;SDS011;7208;49.826;6.004;2023-06-19T12:38:12;1.27;;;1.17;;
14247;SDS011;7208;49.826;6.004;2023-06-19T12:40:39;1.50;;;1.40;;
14247;SDS011;7208;49.826;6.004;2023-06-19T12:43:05;1.48;;;1.38;;
14247;SDS011;7208;49.826;6.004;2023-06-19T12:45:31;1.13;;;0.93;;
14247;SDS011;7208;49.826;6.004;2023-06-19T12:47:57;1.30;;;1.20;;
14247;SDS011;7208;49.826;6.004;2023-06-19T12:50:23;1.10;;;1.10;;
14247;SDS011;7208;49.826;6.004;2023-06-19T12:52:50;1.30;;;1.20;;
14247;SDS011;7208;49.826;6.004;2023-06-19T12:55:16;1.30;;;1.20;;
14247;SDS011;7208;49.826;6.004;2023-06-19T12:57:42;1.25;;;1.10;;
14247;SDS011;7208;49.826;6.004;2023-06-19T13:00:10;1.10;;;1.00;;
14247;SDS011;7208;49.826;6.004;2023-06-19T13:02:37;1.30;;;1.20;;
14247;SDS011;7208;49.826;6.004;2023-06-19T13:05:04;1.00;;;1.00;;
14247;SDS011;7208;49.826;6.004;2023-06-19T13:07:30;2.85;;;1.58;;
14247;SDS011;7208;49.826;6.004;2023-06-19T13:09:56;1.38;;;1.27;;
14247;SDS011;7208;49.826;6.004;2023-06-19T13:12:22;1.13;;;1.10;;
14247;SDS011;7208;49.826;6.004;2023-06-19T13:14:48;1.27;;;1.17;;
14247;SDS011;7208;49.826;6.004;2023-06-19T13:17:14;1.10;;;1.10;;
14247;SDS011;7208;49.826;6.004;2023-06-19T13:19:40;1.10;;;1.00;;
14247;SDS011;7208;49.826;6.004;2023-06-19T13:22:06;1.23;;;1.13;;
14247;SDS011;7208;49.826;6.004;2023-06-19T13:24:32;1.38;;;1.23;;
14247;SDS011;7208;49.826;6.004;2023-06-19T13:26:58;0.80;;;0.80;;
14247;SDS011;7208;49.826;6.004;2023-06-19T13:29:24;1.20;;;1.10;;
14247;SDS011;7208;49.826;6.004;2023-06-19T13:31:50;1.20;;;1.10;;
14247;SDS011;7208;49.826;6.004;2023-06-19T13:34:16;1.83;;;1.23;;
14247;SDS011;7208;49.826;6.004;2023-06-19T13:36:43;1.35;;;1.25;;
14247;SDS011;7208;49.826;6.004;2023-06-19T13:39:09;0.80;;;0.80;;
14247;SDS011;7208;49.826;6.004;2023-06-19T13:41:35;1.10;;;1.00;;
14247;SDS011;7208;49.826;6.004;2023-06-19T13:44:01;0.95;;;0.95;;
14247;SDS011;7208;49.826;6.004;2023-06-19T13:46:27;0.95;;;0.95;;
14247;SDS011;7208;49.826;6.004;2023-06-19T13:48:54;1.05;;;0.98;;
14247;SDS011;7208;49.826;6.004;2023-06-19T13:51:20;1.30;;;1.20;;
14247;SDS011;7208;49.826;6.004;2023-06-19T13:53:47;0.75;;;0.75;;
14247;SDS011;7208;49.826;6.004;2023-06-19T13:56:13;0.70;;;0.70;;
14247;SDS011;7208;49.826;6.004;2023-06-19T13:58:40;0.80;;;0.80;;
14247;SDS011;7208;49.826;6.004;2023-06-19T14:01:06;0.90;;;0.70;;
14247;SDS011;7208;49.826;6.004;2023-06-19T14:03:32;0.75;;;0.73;;
14247;SDS011;7208;49.826;6.004;2023-06-19T14:05:58;0.90;;;0.80;;
14247;SDS011;7208;49.826;6.004;2023-06-19T14:08:24;0.75;;;0.75;;
14247;SDS011;7208;49.826;6.004;2023-06-19T14:10:50;0.80;;;0.70;;
14247;SDS011;7208;49.826;6.004;2023-06-19T14:13:16;0.68;;;0.68;;
14247;SDS011;7208;49.826;6.004;2023-06-19T14:15:42;0.75;;;0.75;;
14247;SDS011;7208;49.826;6.004;2023-06-19T14:18:09;1.00;;;0.82;;
14247;SDS011;7208;49.826;6.004;2023-06-19T14:20:35;0.68;;;0.68;;
14247;SDS011;7208;49.826;6.004;2023-06-19T14:23:01;1.00;;;0.90;;
14247;SDS011;7208;49.826;6.004;2023-06-19T14:25:27;1.58;;;0.90;;
14247;SDS011;7208;49.826;6.004;2023-06-19T14:27:53;0.80;;;0.80;;
14247;SDS011;7208;49.826;6.004;2023-06-19T14:30:20;0.80;;;0.65;;
14247;SDS011;7208;49.826;6.004;2023-06-19T14:32:47;0.80;;;0.80;;
14247;SDS011;7208;49.826;6.004;2023-06-19T14:35:13;0.80;;;0.80;;
14247;SDS011;7208;49.826;6.004;2023-06-19T14:37:39;0.57;;;0.57;;
14247;SDS011;7208;49.826;6.004;2023-06-19T14:40:05;0.70;;;0.70;;
14247;SDS011;7208;49.826;6.004;2023-06-19T14:42:32;0.57;;;0.57;;
14247;SDS011;7208;49.826;6.004;2023-06-19T14:44:58;0.75;;;0.75;;
14247;SDS011;7208;49.826;6.004;2023-06-19T14:47:24;0.77;;;0.75;;
14247;SDS011;7208;49.826;6.004;2023-06-19T14:49:50;0.90;;;0.75;;
14247;SDS011;7208;49.826;6.004;2023-06-19T14:52:16;0.95;;;0.95;;
14247;SDS011;7208;49.826;6.004;2023-06-19T14:54:42;0.80;;;0.80;;
14247;SDS011;7208;49.826;6.004;2023-06-19T14:57:08;1.95;;;0.88;;
14247;SDS011;7208;49.826;6.004;2023-06-19T14:59:34;0.60;;;0.60;;
14247;SDS011;7208;49.826;6.004;2023-06-19T15:02:00;0.65;;;0.65;;
14247;SDS011;7208;49.826;6.004;2023-06-19T15:04:27;0.50;;;0.50;;
14247;SDS011;7208;49.826;6.004;2023-06-19T15:06:53;0.70;;;0.70;;